Time;durP1;ratioP1;P1;durP2;ratioP2;P2;SDS_P1;SDS_P2;PMS_P1;PMS_P2;Temp;Humidity;BMP_temperature;BMP_pressure;BME280_temperature;BME280_humidity;BME280_pressure;Samples;Min_cycle;Max_cycle;Signal;HPM_P1;HPM_P2
2022/11/22 00:01:03;;;;;;;24.10;16.00;;;3.90;99.90;;;;;;4794740;29;20468;-83
2022/11/22 00:03:29;;;;;;;25.65;16.40;;;3.90;99.90;;;;;;4823205;29;20095;-83
2022/11/22 00:05:55;;;;;;;21.98;14.40;;;3.90;99.90;;;;;;4822876;29;20039;-81
2022/11/22 00:08:33;;;;;;;23.30;15.10;;;3.90;99.90;;;;;;4793702;29;20075;-82
2022/11/22 00:11:00;;;;;;;24.52;14.77;;;3.90;99.90;;;;;;4813495;29;21490;-82
2022/11/22 00:13:32;;;;;;;22.30;14.63;;;3.90;99.90;;;;;;4815381;29;20042;-83
2022/11/22 00:16:00;;;;;;;20.25;14.63;;;3.90;99.90;;;;;;4810341;29;20529;-82
2022/11/22 00:18:28;;;;;;;22.77;14.82;;;3.80;99.90;;;;;;4810909;29;20042;-82
2022/11/22 00:20:56;;;;;;;20.20;14.48;;;3.90;99.90;;;;;;4812756;29;20410;-82
2022/11/22 00:23:30;;;;;;;21.25;14.38;;;3.90;99.90;;;;;;4822677;29;20126;-82
2022/11/22 00:25:56;;;;;;;22.38;14.82;;;3.90;99.90;;;;;;4811912;29;20506;-82
2022/11/22 00:28:22;;;;;;;20.77;15.05;;;3.90;99.90;;;;;;4816196;29;20073;-82
2022/11/22 00:30:48;;;;;;;21.38;13.55;;;3.90;99.90;;;;;;4811351;29;20046;-82
2022/11/22 00:33:16;;;;;;;22.85;13.60;;;4.00;99.90;;;;;;4796438;29;20061;-82
2022/11/22 00:35:45;;;;;;;20.08;14.30;;;4.00;99.90;;;;;;4802231;29;20049;-85
2022/11/22 00:38:10;;;;;;;21.85;13.90;;;4.00;99.90;;;;;;4820257;29;20038;-82
2022/11/22 00:40:38;;;;;;;22.23;14.25;;;4.10;99.90;;;;;;4816053;29;20094;-84
2022/11/22 00:43:19;;;;;;;19.08;14.30;;;4.00;99.90;;;;;;4805477;29;20050;-82
2022/11/22 00:45:48;;;;;;;20.77;14.00;;;4.00;99.90;;;;;;4808788;29;20046;-85
2022/11/22 00:48:36;;;;;;;19.15;13.52;;;4.00;99.90;;;;;;4793835;29;20085;-83
2022/11/22 00:51:02;;;;;;;22.08;14.32;;;4.00;99.90;;;;;;4825413;29;20642;-83
2022/11/22 00:53:40;;;;;;;22.55;14.77;;;4.00;99.90;;;;;;4795480;29;20045;-85
2022/11/22 00:56:14;;;;;;;21.30;14.68;;;4.00;99.90;;;;;;4793168;29;20038;-82
2022/11/22 00:58:39;;;;;;;22.88;15.85;;;4.00;99.90;;;;;;4813849;29;20133;-82
2022/11/22 01:01:21;;;;;;;25.13;15.48;;;4.00;99.90;;;;;;4814075;29;20113;-82
2022/11/22 01:03:46;;;;;;;24.67;14.40;;;4.20;99.90;;;;;;4818446;29;20521;-85
2022/11/22 01:06:17;;;;;;;20.00;14.77;;;4.10;99.90;;;;;;4810469;29;20041;-82
2022/11/22 01:09:04;;;;;;;25.75;14.50;;;4.30;99.90;;;;;;4797857;29;20130;-81
2022/11/22 01:11:34;;;;;;;19.45;14.80;;;4.00;99.90;;;;;;4802373;29;20081;-84
2022/11/22 01:14:00;;;;;;;21.33;13.95;;;4.00;99.90;;;;;;4810574;29;20074;-81
2022/11/22 01:16:27;;;;;;;21.95;14.27;;;4.10;99.90;;;;;;4797602;29;20070;-81
2022/11/22 01:18:53;;;;;;;17.98;13.40;;;4.10;99.90;;;;;;4795228;29;20075;-82
2022/11/22 01:21:28;;;;;;;19.98;14.82;;;4.10;99.90;;;;;;4810460;29;20046;-82
2022/11/22 01:23:53;;;;;;;24.08;14.32;;;4.10;99.90;;;;;;4800842;29;20045;-83
2022/11/22 01:27:06;;;;;;;19.70;14.70;;;4.20;99.90;;;;;;4794545;29;20039;-83
2022/11/22 01:29:36;;;;;;;21.58;15.75;;;4.10;99.90;;;;;;4794864;29;20046;-83
2022/11/22 01:32:02;;;;;;;19.58;15.13;;;4.10;99.90;;;;;;4794768;29;20410;-82
2022/11/22 01:34:27;;;;;;;21.95;14.40;;;4.00;99.90;;;;;;4789681;29;20057;-84
2022/11/22 01:36:58;;;;;;;26.05;17.65;;;3.90;99.90;;;;;;4811160;29;20041;-82
2022/11/22 01:39:24;;;;;;;24.98;16.65;;;4.00;99.90;;;;;;4792291;29;20046;-84
2022/11/22 01:42:02;;;;;;;24.77;17.40;;;3.90;99.90;;;;;;4810691;29;20038;-82
2022/11/22 01:44:55;;;;;;;27.38;16.77;;;3.90;99.90;;;;;;4808004;29;20046;-82
2022/11/22 01:47:31;;;;;;;23.50;17.40;;;3.90;99.90;;;;;;4808850;29;20065;-83
2022/11/22 01:50:16;;;;;;;24.58;17.52;;;3.90;99.90;;;;;;4818456;29;20537;-82
2022/11/22 01:52:42;;;;;;;28.25;17.77;;;3.90;99.90;;;;;;4810886;29;20050;-83
2022/11/22 01:55:13;;;;;;;28.48;18.55;;;3.90;99.90;;;;;;4789194;29;20042;-82
2022/11/22 01:57:43;;;;;;;25.92;18.83;;;3.80;99.90;;;;;;4793859;29;20456;-82
2022/11/22 02:00:15;;;;;;;28.42;18.77;;;3.90;99.90;;;;;;4792078;29;20038;-83
2022/11/22 02:02:49;;;;;;;26.15;17.60;;;3.80;99.90;;;;;;4827219;29;20508;-83
2022/11/22 02:05:20;;;;;;;29.70;18.80;;;3.90;99.90;;;;;;4793873;29;20050;-82
2022/11/22 02:07:55;;;;;;;32.80;18.98;;;3.90;99.90;;;;;;4792840;29;20070;-82
2022/11/22 02:10:23;;;;;;;27.77;19.85;;;3.80;99.90;;;;;;4817585;29;20473;-82
2022/11/22 02:12:53;;;;;;;27.85;17.98;;;4.70;99.90;;;;;;4811093;29;20053;-82
2022/11/22 02:15:24;;;;;;;29.75;19.02;;;3.90;99.90;;;;;;4824246;29;20051;-86
2022/11/22 02:17:50;;;;;;;28.50;18.90;;;3.90;99.90;;;;;;4808001;29;20042;-82
2022/11/22 02:20:18;;;;;;;26.77;18.30;;;3.90;99.90;;;;;;4811958;29;20521;-81
2022/11/22 02:23:09;;;;;;;30.95;19.08;;;3.90;99.90;;;;;;4806715;29;20050;-81
2022/11/22 02:25:40;;;;;;;32.25;20.25;;;3.90;99.90;;;;;;4792210;29;20055;-82
2022/11/22 02:28:12;;;;;;;28.67;18.83;;;3.90;99.90;;;;;;4824532;29;20050;-82
2022/11/22 02:30:40;;;;;;;28.23;18.45;;;3.90;99.90;;;;;;4808723;29;20137;-82
2022/11/22 02:33:13;;;;;;;27.40;17.83;;;4.00;99.90;;;;;;4792886;29;20078;-84
2022/11/22 02:36:06;;;;;;;26.02;17.80;;;4.40;99.90;;;;;;4792285;29;20046;-81
2022/11/22 02:38:45;;;;;;;26.83;18.48;;;4.00;99.90;;;;;;4811108;29;20122;-81
2022/11/22 02:41:14;;;;;;;28.75;18.77;;;4.00;99.90;;;;;;4810326;29;20074;-82
2022/11/22 02:44:08;;;;;;;31.67;18.83;;;4.00;99.90;;;;;;4819888;29;20050;-85
2022/11/22 02:46:33;;;;;;;32.22;19.95;;;4.10;99.90;;;;;;4822932;29;20145;-82
2022/11/22 02:49:04;;;;;;;35.72;18.88;;;4.10;99.90;;;;;;4791857;29;20553;-82
2022/11/22 02:51:31;;;;;;;28.27;18.48;;;4.00;99.90;;;;;;4793853;29;20402;-83
2022/11/22 02:54:05;;;;;;;31.00;19.40;;;4.10;99.90;;;;;;4807121;29;20106;-82
2022/11/22 02:56:30;;;;;;;30.05;18.05;;;4.10;99.90;;;;;;4810824;29;20038;-87
2022/11/22 02:59:01;;;;;;;38.80;20.73;;;4.10;99.90;;;;;;4797346;29;20095;-84
2022/11/22 03:01:47;;;;;;;32.90;18.90;;;4.10;99.90;;;;;;4788767;29;20124;-82
2022/11/22 03:04:23;;;;;;;29.90;19.55;;;4.10;99.90;;;;;;4807971;29;20034;-81
2022/11/22 03:07:01;;;;;;;35.17;19.42;;;4.10;99.90;;;;;;4811177;29;20107;-84
2022/11/22 03:09:48;;;;;;;32.90;20.20;;;4.10;99.90;;;;;;4809100;29;20054;-81
2022/11/22 03:12:17;;;;;;;29.73;19.67;;;4.20;99.90;;;;;;4814014;29;20052;-84
2022/11/22 03:14:48;;;;;;;30.40;18.35;;;4.20;99.90;;;;;;4829097;29;20041;-82
2022/11/22 03:17:15;;;;;;;29.52;19.50;;;4.00;99.90;;;;;;4798896;29;20047;-82
2022/11/22 03:19:42;;;;;;;29.08;19.17;;;4.20;99.90;;;;;;4793598;29;20113;-83
2022/11/22 03:22:16;;;;;;;32.67;19.17;;;5.20;99.90;;;;;;4812853;29;20054;-82
2022/11/22 03:24:47;;;;;;;29.98;18.65;;;4.30;99.90;;;;;;4793573;29;20065;-84
2022/11/22 03:27:13;;;;;;;30.60;18.95;;;4.30;99.90;;;;;;4796480;29;20102;-81
2022/11/22 03:29:51;;;;;;;27.45;18.40;;;4.40;99.90;;;;;;4805852;29;20160;-82
2022/11/22 03:32:16;;;;;;;25.63;16.50;;;4.30;99.90;;;;;;4812279;29;20074;-82
2022/11/22 03:34:43;;;;;;;24.75;17.33;;;4.30;99.90;;;;;;4819105;29;20065;-82
2022/11/22 03:37:18;;;;;;;32.95;18.77;;;4.50;99.90;;;;;;4806086;29;20117;-81
2022/11/22 03:39:52;;;;;;;33.03;19.52;;;4.30;99.90;;;;;;4828528;29;20402;-81
2022/11/22 03:42:24;;;;;;;27.90;18.27;;;4.40;99.90;;;;;;4807637;29;20042;-81
2022/11/22 03:44:55;;;;;;;26.80;18.30;;;4.40;99.90;;;;;;4806730;29;20107;-82
2022/11/22 03:47:31;;;;;;;25.92;17.35;;;4.40;99.90;;;;;;4804815;29;20043;-82
2022/11/22 03:50:50;;;;;;;29.55;18.70;;;4.60;99.90;;;;;;4820652;29;20133;-82
2022/11/22 03:53:15;;;;;;;28.02;18.02;;;4.40;99.90;;;;;;4806501;29;20517;-82
2022/11/22 03:55:50;;;;;;;26.45;17.40;;;4.40;99.90;;;;;;4821654;29;20035;-82
2022/11/22 03:58:18;;;;;;;30.40;18.15;;;4.40;99.90;;;;;;4822758;29;20091;-82
2022/11/22 04:00:50;;;;;;;30.10;17.48;;;4.50;99.90;;;;;;4792933;29;20049;-82
2022/11/22 04:03:19;;;;;;;26.98;17.45;;;4.50;99.90;;;;;;4824434;29;20050;-85
2022/11/22 04:05:50;;;;;;;29.65;18.60;;;4.40;99.90;;;;;;4807554;29;20042;-81
2022/11/22 04:08:15;;;;;;;27.27;17.58;;;4.40;99.90;;;;;;4820045;29;20129;-81
2022/11/22 04:10:44;;;;;;;29.55;18.58;;;4.50;99.90;;;;;;4792999;29;20065;-82
2022/11/22 04:13:09;;;;;;;27.75;18.17;;;4.50;99.90;;;;;;4808007;29;20074;-81
2022/11/22 04:15:35;;;;;;;28.15;18.02;;;4.50;99.90;;;;;;4805893;29;20074;-83
2022/11/22 04:18:01;;;;;;;29.42;17.88;;;4.50;99.90;;;;;;4791441;29;20043;-84
2022/11/22 04:23:18;;;;;;;27.35;17.40;;;4.50;99.90;;;;;;4807960;29;20049;-82
2022/11/22 04:25:49;;;;;;;25.95;17.48;;;4.50;99.90;;;;;;4807563;29;20053;-82
2022/11/22 04:28:17;;;;;;;29.00;17.45;;;4.60;99.90;;;;;;4794909;29;20057;-81
2022/11/22 04:33:40;;;;;;;28.60;17.75;;;4.60;99.90;;;;;;4825984;29;20134;-85
2022/11/22 04:36:05;;;;;;;26.20;18.08;;;4.60;99.90;;;;;;4824653;29;20518;-84
2022/11/22 04:38:33;;;;;;;24.42;18.00;;;4.90;99.90;;;;;;4796711;29;20050;-82
2022/11/22 04:40:58;;;;;;;29.35;18.70;;;4.60;99.90;;;;;;4812612;29;20046;-81
2022/11/22 04:46:37;;;;;;;28.85;18.92;;;4.70;99.90;;;;;;4809856;29;20092;-84
2022/11/22 04:49:46;;;;;;;33.30;19.02;;;4.70;99.90;;;;;;4795148;29;20121;-83
2022/11/22 04:55:08;;;;;;;25.15;17.90;;;4.70;99.90;;;;;;4824460;29;20050;-81
2022/11/22 04:57:42;;;;;;;29.30;18.15;;;4.80;99.90;;;;;;4816151;29;20034;-82
2022/11/22 05:00:08;;;;;;;25.10;17.67;;;4.80;99.90;;;;;;4806708;29;20047;-84
2022/11/22 05:02:43;;;;;;;25.33;18.52;;;4.80;99.90;;;;;;4788973;29;20049;-84
2022/11/22 05:09:28;;;;;;;27.17;17.73;;;4.90;99.90;;;;;;4821049;29;20131;-85
2022/11/22 05:16:33;;;;;;;23.13;16.23;;;5.00;99.90;;;;;;4809830;29;20065;-82
2022/11/22 05:19:00;;;;;;;28.42;18.80;;;5.10;99.90;;;;;;4802110;29;20045;-83
2022/11/22 05:21:27;;;;;;;24.30;16.92;;;4.80;99.90;;;;;;4820639;29;20129;-87
2022/11/22 05:23:53;;;;;;;26.52;17.20;;;5.00;99.90;;;;;;4787264;29;20038;-82
2022/11/22 05:26:26;;;;;;;25.02;17.15;;;4.90;99.90;;;;;;4820847;29;20129;-83
2022/11/22 05:28:51;;;;;;;26.05;16.98;;;5.00;99.90;;;;;;4819029;29;20051;-83
2022/11/22 05:31:49;;;;;;;24.75;16.70;;;5.00;99.90;;;;;;4809485;29;20039;-83
2022/11/22 05:34:33;;;;;;;27.95;17.15;;;5.00;99.90;;;;;;4807242;29;20060;-83
2022/11/22 05:36:59;;;;;;;28.77;17.38;;;5.00;99.90;;;;;;4793770;29;20101;-85
2022/11/22 05:39:49;;;;;;;25.92;16.70;;;5.10;99.90;;;;;;4807245;29;20498;-87
2022/11/22 05:42:18;;;;;;;28.13;17.80;;;5.10;99.90;;;;;;4815268;29;20053;-84
2022/11/22 05:45:04;;;;;;;24.52;16.85;;;5.10;99.90;;;;;;4795601;29;20038;-85
2022/11/22 05:47:34;;;;;;;26.20;17.85;;;5.10;99.90;;;;;;4796496;29;20046;-84
2022/11/22 05:50:28;;;;;;;22.45;16.10;;;5.10;99.90;;;;;;4812135;29;20053;-85
2022/11/22 05:52:59;;;;;;;28.08;16.85;;;5.10;99.90;;;;;;4816760;29;20073;-84
2022/11/22 05:56:38;;;;;;;24.27;16.70;;;5.00;99.90;;;;;;4811401;29;20046;-85
2022/11/22 05:59:22;;;;;;;26.40;16.90;;;5.10;99.90;;;;;;4693447;30;20045;-85
2022/11/22 06:03:06;;;;;;;29.13;17.48;;;5.90;99.90;;;;;;4684358;30;20513;-84
2022/11/22 06:06:19;;;;;;;26.45;15.50;;;5.20;99.90;;;;;;4652794;30;20098;-83
2022/11/22 06:12:27;;;;;;;23.67;15.35;;;5.20;99.90;;;;;;4651400;30;20058;-84
2022/11/22 06:14:58;;;;;;;28.70;16.95;;;5.20;99.90;;;;;;4627975;30;20039;-85
2022/11/22 06:17:24;;;;;;;28.80;16.80;;;5.20;99.90;;;;;;4710224;30;20053;-82
2022/11/22 06:19:49;;;;;;;22.05;15.43;;;5.20;99.90;;;;;;4723206;30;20054;-82
2022/11/22 06:22:15;;;;;;;20.67;12.70;;;5.20;99.90;;;;;;4790550;29;20057;-79
2022/11/22 06:24:42;;;;;;;24.00;14.88;;;5.20;99.90;;;;;;4811078;29;20042;-82
2022/11/22 06:27:08;;;;;;;26.80;13.73;;;5.00;99.90;;;;;;4810643;29;20046;-82
2022/11/22 06:29:34;;;;;;;23.00;12.05;;;5.20;99.90;;;;;;4809578;29;20107;-82
2022/11/22 06:32:00;;;;;;;21.70;13.15;;;5.40;99.90;;;;;;4797314;29;20050;-82
2022/11/22 06:34:26;;;;;;;22.92;13.93;;;5.40;99.90;;;;;;4815840;29;20066;-82
2022/11/22 06:36:52;;;;;;;22.02;12.68;;;5.40;99.90;;;;;;4809533;29;20510;-83
2022/11/22 06:39:17;;;;;;;22.63;11.82;;;5.50;99.90;;;;;;4797852;29;20058;-82
2022/11/22 06:41:43;;;;;;;26.83;12.65;;;5.50;99.90;;;;;;4810519;29;20529;-81
2022/11/22 06:44:09;;;;;;;24.08;11.85;;;5.50;99.90;;;;;;4807473;29;20046;-82
2022/11/22 06:46:35;;;;;;;20.45;12.80;;;5.50;99.90;;;;;;4792819;29;20142;-82
2022/11/22 06:49:01;;;;;;;20.58;10.88;;;5.50;99.90;;;;;;4813204;29;20042;-82
2022/11/22 06:51:29;;;;;;;16.40;10.90;;;5.50;99.90;;;;;;4791153;29;20038;-82
2022/11/22 06:53:56;;;;;;;22.85;10.60;;;5.50;99.90;;;;;;4790565;29;20546;-78
2022/11/22 06:56:36;;;;;;;16.83;9.32;;;5.40;99.90;;;;;;4792826;29;20043;-84
2022/11/22 06:59:04;;;;;;;22.92;10.63;;;5.40;99.90;;;;;;4794834;29;20046;-83
2022/11/22 07:01:30;;;;;;;21.73;10.43;;;5.40;99.90;;;;;;4805832;29;20038;-82
2022/11/22 07:03:57;;;;;;;22.88;9.93;;;5.30;99.90;;;;;;4807490;29;20164;-82
2022/11/22 07:06:25;;;;;;;18.92;9.40;;;5.40;99.90;;;;;;4797904;29;20129;-82
2022/11/22 07:08:51;;;;;;;22.92;10.02;;;5.30;99.90;;;;;;4787533;29;20054;-81
2022/11/22 07:11:19;;;;;;;29.63;10.52;;;5.20;99.90;;;;;;4787722;29;20073;-81
2022/11/22 07:13:47;;;;;;;23.45;8.63;;;5.30;99.90;;;;;;4807251;29;20050;-80
2022/11/22 07:16:16;;;;;;;18.88;9.38;;;5.40;99.90;;;;;;4799855;29;20053;-82
2022/11/22 07:18:41;;;;;;;20.17;9.32;;;5.30;99.90;;;;;;4825752;29;20042;-82
2022/11/22 07:21:09;;;;;;;19.70;8.80;;;5.30;99.90;;;;;;4794875;29;20168;-81
2022/11/22 07:23:38;;;;;;;19.80;9.63;;;5.30;99.90;;;;;;4810570;29;20050;-85
2022/11/22 07:26:03;;;;;;;24.38;8.63;;;5.30;99.90;;;;;;4812269;29;20057;-81
2022/11/22 07:28:29;;;;;;;19.48;7.53;;;5.30;99.90;;;;;;4791054;29;20050;-82
2022/11/22 07:31:00;;;;;;;20.88;7.03;;;5.30;99.90;;;;;;4813901;29;20156;-80
2022/11/22 07:34:10;;;;;;;29.02;8.77;;;5.30;99.90;;;;;;4803410;29;20047;-84
2022/11/22 07:36:46;;;;;;;18.80;7.38;;;5.30;99.90;;;;;;4805407;29;20042;-88
2022/11/22 07:39:13;;;;;;;23.92;6.70;;;5.20;99.90;;;;;;4801512;29;20074;-82
2022/11/22 07:41:45;;;;;;;17.85;7.10;;;5.20;99.90;;;;;;4800902;29;20064;-86
2022/11/22 07:44:11;;;;;;;18.33;7.43;;;5.20;99.90;;;;;;4794971;29;20405;-82
2022/11/22 07:46:47;;;;;;;19.42;7.03;;;5.30;99.90;;;;;;4773946;29;20052;-82
2022/11/22 07:49:19;;;;;;;21.92;7.32;;;5.30;99.90;;;;;;4764283;29;20177;-82
2022/11/22 07:51:45;;;;;;;19.80;6.75;;;5.20;99.90;;;;;;4776111;29;20046;-80
2022/11/22 07:54:14;;;;;;;18.75;6.35;;;5.20;99.90;;;;;;4772998;29;20109;-84
2022/11/22 07:56:40;;;;;;;15.52;6.15;;;5.10;99.90;;;;;;4769373;29;20046;-84
2022/11/22 07:59:24;;;;;;;20.52;6.95;;;5.40;99.90;;;;;;4785345;29;20077;-81
2022/11/22 08:02:05;;;;;;;17.48;4.97;;;5.20;99.90;;;;;;4787865;29;20069;-84
2022/11/22 08:04:39;;;;;;;19.58;5.80;;;5.20;99.90;;;;;;4788763;29;20518;-83
2022/11/22 08:07:05;;;;;;;16.30;5.63;;;5.20;99.90;;;;;;4790917;29;20078;-84
2022/11/22 08:09:39;;;;;;;15.27;5.40;;;5.20;99.90;;;;;;4776365;29;20129;-83
2022/11/22 08:12:15;;;;;;;18.27;5.40;;;5.20;99.90;;;;;;4804078;29;20421;-81
2022/11/22 08:14:52;;;;;;;19.35;5.68;;;5.20;99.90;;;;;;4792042;29;20050;-80
2022/11/22 08:17:22;;;;;;;15.38;4.50;;;5.20;99.90;;;;;;4790691;29;20505;-82
2022/11/22 08:19:52;;;;;;;12.02;3.67;;;5.40;99.90;;;;;;4789279;29;20341;-81
2022/11/22 08:22:28;;;;;;;14.68;4.03;;;5.20;99.90;;;;;;4791388;29;20106;-80
2022/11/22 08:24:57;;;;;;;15.00;4.10;;;5.20;99.90;;;;;;4807838;29;20111;-81
2022/11/22 08:27:23;;;;;;;18.05;3.95;;;5.20;99.90;;;;;;4778161;29;20108;-83
2022/11/22 08:29:50;;;;;;;11.32;3.40;;;5.20;99.90;;;;;;4774764;29;20141;-82
2022/11/22 08:32:16;;;;;;;11.93;3.13;;;5.30;99.90;;;;;;4804591;29;20050;-83
2022/11/22 08:34:44;;;;;;;20.50;3.47;;;5.30;99.90;;;;;;4777296;29;20508;-81
2022/11/22 08:37:20;;;;;;;18.08;4.70;;;5.40;99.90;;;;;;4792683;29;20038;-85
2022/11/22 08:39:46;;;;;;;20.45;4.15;;;5.30;99.90;;;;;;4788765;29;20042;-81
2022/11/22 09:12:30;;;;;;;15.77;3.40;;;5.90;99.90;;;;;;4766566;29;20045;-81
2022/11/22 09:19:46;;;;;;;24.23;3.45;;;5.90;99.90;;;;;;4723910;30;20225;-85
2022/11/22 09:26:42;;;;;;;9.40;2.25;;;6.00;99.90;;;;;;4727594;30;20162;-82
2022/11/22 09:37:20;;;;;;;12.40;2.30;;;6.10;99.90;;;;;;4640400;30;20058;-80
2022/11/22 09:44:17;;;;;;;13.15;1.90;;;6.10;99.90;;;;;;4641061;30;21959;-83
2022/11/22 09:47:40;;;;;;;;;;;;;;;;;;;;;
2022/11/22 09:50:56;;;;;;;12.80;2.30;;;6.20;99.90;;;;;;4650710;30;20486;-81
2022/11/22 09:54:12;;;;;;;7.50;1.63;;;6.20;99.90;;;;;;4717298;30;20060;-82
2022/11/22 09:57:43;;;;;;;7.70;2.00;;;6.30;99.90;;;;;;4736170;30;20051;-82
2022/11/22 10:00:20;;;;;;;14.90;1.95;;;6.30;99.90;;;;;;4732881;30;20175;-82
2022/11/22 10:03:03;;;;;;;11.13;1.92;;;6.30;99.90;;;;;;4763032;29;20103;-84
2022/11/22 10:05:40;;;;;;;15.45;2.47;;;6.40;99.90;;;;;;4788354;29;20074;-82
2022/11/22 10:08:24;;;;;;;9.98;2.15;;;6.40;99.90;;;;;;4770741;29;21122;-80
2022/11/22 10:10:54;;;;;;;18.60;3.45;;;6.40;99.90;;;;;;4783995;29;20048;-82
2022/11/22 10:13:49;;;;;;;11.80;2.72;;;6.40;99.90;;;;;;4773960;29;20050;-81
2022/11/22 10:16:49;;;;;;;20.00;3.58;;;6.50;99.90;;;;;;4799948;29;20054;-85
2022/11/22 10:19:24;;;;;;;12.40;1.80;;;6.50;99.90;;;;;;4764655;29;20089;-82
2022/11/22 10:21:50;;;;;;;8.73;1.83;;;6.50;99.90;;;;;;4788633;29;21722;-85
2022/11/22 10:24:17;;;;;;;7.90;1.30;;;6.60;99.90;;;;;;4783757;29;20075;-82
2022/11/22 10:26:43;;;;;;;9.18;1.77;;;7.10;99.90;;;;;;4786465;29;20045;-81
2022/11/22 10:29:39;;;;;;;10.00;2.22;;;6.70;99.90;;;;;;4786966;29;20049;-84
2022/11/22 10:32:19;;;;;;;7.47;1.90;;;6.80;99.90;;;;;;4788631;29;20094;-82
2022/11/22 10:35:06;;;;;;;11.70;1.75;;;6.90;99.90;;;;;;4787065;29;20168;-81
2022/11/22 10:38:24;;;;;;;8.65;1.58;;;6.90;99.90;;;;;;4790209;29;20518;-83
2022/11/22 10:41:25;;;;;;;9.25;2.00;;;7.00;99.90;;;;;;4786361;29;20065;-84
2022/11/22 10:44:36;;;;;;;7.03;1.27;;;7.00;99.90;;;;;;4786928;29;20185;-82
2022/11/22 10:47:08;;;;;;;11.27;1.52;;;7.10;99.90;;;;;;4759494;29;21835;-84
2022/11/22 10:49:56;;;;;;;7.65;1.67;;;7.10;99.90;;;;;;4799924;29;20078;-84
2022/11/22 10:52:54;;;;;;;5.63;1.52;;;7.20;99.90;;;;;;4783263;29;20130;-81
2022/11/22 10:55:32;;;;;;;11.05;2.08;;;7.30;99.90;;;;;;4803284;29;20069;-84
2022/11/22 10:58:05;;;;;;;7.45;1.80;;;7.30;99.90;;;;;;4788350;29;20042;-84
2022/11/22 11:00:32;;;;;;;9.40;1.40;;;7.40;99.90;;;;;;4786881;29;20120;-81
2022/11/22 11:03:10;;;;;;;11.48;1.58;;;7.40;99.90;;;;;;4800152;29;20047;-82
2022/11/22 11:06:01;;;;;;;9.63;1.85;;;7.40;99.90;;;;;;4773198;29;20056;-83
2022/11/22 11:08:44;;;;;;;15.38;2.28;;;7.50;99.90;;;;;;4780363;29;20207;-84
2022/11/22 11:11:11;;;;;;;8.00;1.85;;;7.40;99.90;;;;;;4772084;29;20136;-84
2022/11/22 11:13:44;;;;;;;6.72;1.27;;;7.50;99.90;;;;;;4805368;29;20375;-85
2022/11/22 11:16:16;;;;;;;7.20;1.60;;;7.50;99.90;;;;;;4785394;29;21128;-82
2022/11/22 11:18:53;;;;;;;7.47;1.25;;;7.50;99.90;;;;;;4785094;29;20042;-84
2022/11/22 11:21:20;;;;;;;11.40;3.08;;;7.50;99.90;;;;;;4785440;29;20053;-83
2022/11/22 11:23:53;;;;;;;11.40;1.73;;;7.60;99.90;;;;;;4786965;29;20133;-83
2022/11/22 11:26:27;;;;;;;9.93;1.73;;;7.60;99.90;;;;;;4785733;29;20050;-83
2022/11/22 11:29:15;;;;;;;6.78;1.50;;;7.60;99.90;;;;;;4789740;29;20050;-83
2022/11/22 11:31:46;;;;;;;8.00;1.50;;;7.70;99.90;;;;;;4787314;29;20053;-84
2022/11/22 11:34:28;;;;;;;7.50;1.83;;;7.70;99.90;;;;;;4785685;29;20145;-84
2022/11/22 11:36:59;;;;;;;8.25;1.70;;;7.60;99.90;;;;;;4787113;29;20058;-82
2022/11/22 11:39:30;;;;;;;8.65;1.60;;;7.60;99.90;;;;;;4787613;29;20057;-84
2022/11/22 11:42:00;;;;;;;13.88;1.98;;;7.60;99.90;;;;;;4804186;29;20169;-82
2022/11/22 11:44:36;;;;;;;7.30;2.08;;;7.50;99.90;;;;;;4806941;29;20129;-80
2022/11/22 11:47:03;;;;;;;9.75;2.92;;;7.50;99.90;;;;;;4791912;29;20043;-83
2022/11/22 11:49:50;;;;;;;9.70;2.72;;;7.60;99.90;;;;;;4792403;29;20053;-81
2022/11/22 11:52:22;;;;;;;6.15;1.63;;;7.60;99.90;;;;;;4774131;29;20074;-82
2022/11/22 11:54:53;;;;;;;14.77;2.45;;;7.60;99.90;;;;;;4791730;29;20050;-85
2022/11/22 11:57:32;;;;;;;7.93;2.20;;;7.60;99.90;;;;;;4789610;29;20046;-82
2022/11/22 12:00:00;;;;;;;5.93;1.60;;;7.70;99.90;;;;;;4792554;29;20403;-85
2022/11/22 12:02:40;;;;;;;9.30;1.40;;;7.70;99.90;;;;;;4804979;29;20054;-81
2022/11/22 12:05:26;;;;;;;6.68;0.80;;;7.80;99.90;;;;;;4790519;29;20054;-85
2022/11/22 12:07:52;;;;;;;8.20;2.17;;;7.90;99.90;;;;;;4787487;29;20047;-81
2022/11/22 12:10:48;;;;;;;8.30;1.65;;;7.80;99.90;;;;;;4789467;29;20057;-81
2022/11/22 12:13:40;;;;;;;5.85;1.02;;;7.80;99.90;;;;;;4793761;29;20129;-84
2022/11/22 12:16:22;;;;;;;9.63;1.15;;;7.80;99.90;;;;;;4788684;29;20058;-82
2022/11/22 12:20:10;;;;;;;5.18;0.93;;;7.80;99.90;;;;;;4787195;29;20053;-84
2022/11/22 12:23:10;;;;;;;7.20;1.30;;;7.80;99.90;;;;;;4719269;30;20056;-81
2022/11/22 12:25:38;;;;;;;7.25;1.48;;;7.80;99.90;;;;;;4730939;30;20319;-84
2022/11/22 12:28:26;;;;;;;10.57;1.88;;;7.80;99.90;;;;;;4775798;29;20066;-82
2022/11/22 12:31:11;;;;;;;8.70;1.42;;;7.80;99.90;;;;;;4806736;29;20469;-81
2022/11/22 12:33:42;;;;;;;9.43;2.22;;;7.80;99.90;;;;;;4774455;29;20121;-83
2022/11/22 12:36:23;;;;;;;8.13;0.88;;;7.70;99.90;;;;;;4801201;29;20050;-81
2022/11/22 12:38:55;;;;;;;6.95;1.42;;;7.70;99.90;;;;;;4790272;29;20129;-84
2022/11/22 12:41:24;;;;;;;4.90;0.90;;;7.70;99.90;;;;;;4774281;29;20438;-83
2022/11/22 12:44:19;;;;;;;8.63;1.20;;;7.70;99.90;;;;;;4774503;29;20725;-83
2022/11/22 12:47:21;;;;;;;9.02;1.13;;;7.80;99.90;;;;;;4772389;29;20051;-80
2022/11/22 12:49:58;;;;;;;7.03;1.10;;;7.70;99.90;;;;;;4799897;29;20050;-82
2022/11/22 12:52:42;;;;;;;8.85;2.08;;;7.70;99.90;;;;;;4807422;29;20061;-84
2022/11/22 12:55:22;;;;;;;6.28;1.25;;;7.60;99.90;;;;;;4795777;29;20101;-83
2022/11/22 12:58:17;;;;;;;6.93;0.85;;;7.60;99.90;;;;;;4793749;29;20042;-86
2022/11/22 13:01:08;;;;;;;6.57;1.75;;;7.60;99.90;;;;;;4790519;29;20046;-84
2022/11/22 13:03:46;;;;;;;8.30;1.80;;;7.60;99.90;;;;;;4788502;29;20785;-83
2022/11/22 13:06:28;;;;;;;8.25;2.15;;;7.60;99.90;;;;;;4801575;29;20035;-85
2022/11/22 13:08:59;;;;;;;5.50;1.60;;;7.60;99.90;;;;;;4788888;29;20035;-82
2022/11/22 13:12:01;;;;;;;7.35;1.80;;;7.60;99.90;;;;;;4786942;29;20046;-84
2022/11/22 13:14:44;;;;;;;3.35;0.70;;;7.50;99.90;;;;;;4734495;30;20095;-83
2022/11/22 13:17:11;;;;;;;6.22;0.77;;;7.60;99.90;;;;;;4732103;29;20156;-81
2022/11/22 13:20:01;;;;;;;4.55;0.60;;;7.60;99.90;;;;;;4802821;29;20042;-82
2022/11/22 13:23:22;;;;;;;7.95;1.05;;;7.60;99.90;;;;;;4787124;29;20103;-81
2022/11/22 13:26:01;;;;;;;6.18;1.20;;;7.50;99.90;;;;;;4793206;29;20042;-81
2022/11/22 13:28:32;;;;;;;5.53;0.98;;;7.60;99.90;;;;;;4792972;29;20057;-78
2022/11/22 13:31:15;;;;;;;3.83;0.60;;;7.50;99.90;;;;;;4779578;29;20127;-83
2022/11/22 13:33:57;;;;;;;3.40;0.90;;;7.50;99.90;;;;;;4793369;29;20034;-82
2022/11/22 13:36:31;;;;;;;7.43;0.95;;;7.50;99.90;;;;;;4790875;29;20581;-79
2022/11/22 13:39:14;;;;;;;4.57;0.82;;;7.50;99.90;;;;;;4777338;29;20050;-82
2022/11/22 13:41:53;;;;;;;4.80;1.23;;;7.50;99.90;;;;;;4807179;29;20043;-82
2022/11/22 13:44:21;;;;;;;3.97;0.90;;;7.50;99.90;;;;;;4804555;29;20050;-83
2022/11/22 13:47:11;;;;;;;6.85;1.58;;;7.50;99.90;;;;;;4791391;29;20058;-79
2022/11/22 13:49:44;;;;;;;6.85;1.10;;;7.50;99.90;;;;;;4795498;29;20057;-80
2022/11/22 13:52:15;;;;;;;4.57;0.80;;;7.50;99.90;;;;;;4807582;29;20501;-82
2022/11/22 13:54:55;;;;;;;6.75;0.60;;;7.50;99.90;;;;;;4794144;29;20065;-80
2022/11/22 13:57:24;;;;;;;6.80;1.40;;;7.50;99.90;;;;;;4791301;29;20047;-80
2022/11/22 14:00:12;;;;;;;5.20;0.90;;;7.40;99.90;;;;;;4809056;29;20042;-79
2022/11/22 14:02:54;;;;;;;3.90;0.80;;;7.50;99.90;;;;;;4790916;29;20111;-84
2022/11/22 14:05:52;;;;;;;2.88;0.75;;;7.40;99.90;;;;;;4791584;29;20046;-84
2022/11/22 14:08:46;;;;;;;5.28;0.77;;;7.40;99.90;;;;;;4807153;29;20074;-82
2022/11/22 14:11:47;;;;;;;5.38;0.55;;;7.40;99.90;;;;;;4778749;29;20553;-84
2022/11/22 14:15:09;;;;;;;6.00;1.00;;;7.40;99.90;;;;;;4792532;29;20046;-84
2022/11/22 14:18:08;;;;;;;7.15;0.80;;;7.30;99.90;;;;;;4736091;30;20142;-81
2022/11/22 14:21:13;;;;;;;4.68;1.10;;;7.80;99.90;;;;;;4723071;30;20154;-81
2022/11/22 14:24:00;;;;;;;4.60;1.00;;;7.30;99.90;;;;;;4723432;30;20051;-84
2022/11/22 14:26:28;;;;;;;9.80;1.08;;;7.30;99.90;;;;;;4766977;29;20130;-83
2022/11/22 14:29:19;;;;;;;5.80;1.10;;;7.30;99.90;;;;;;4791437;29;20054;-84
2022/11/22 14:32:13;;;;;;;5.28;0.90;;;7.20;99.90;;;;;;4805929;29;20042;-83
2022/11/22 14:35:47;;;;;;;4.55;0.70;;;7.20;99.90;;;;;;4775942;29;20088;-83
2022/11/22 14:38:35;;;;;;;3.90;0.88;;;7.20;99.90;;;;;;4713250;30;20094;-84
2022/11/22 14:41:26;;;;;;;4.63;0.57;;;7.20;99.90;;;;;;4749483;30;20058;-83
2022/11/22 14:44:27;;;;;;;6.20;1.55;;;7.10;99.90;;;;;;4793504;29;20217;-85
2022/11/22 14:47:04;;;;;;;4.93;1.30;;;7.30;99.90;;;;;;4794407;29;22077;-84
2022/11/22 14:49:46;;;;;;;8.82;0.90;;;7.20;99.90;;;;;;4795268;29;20046;-84
2022/11/22 14:52:36;;;;;;;4.60;0.80;;;7.20;99.90;;;;;;4793722;29;20058;-84